Time;durP1;ratioP1;P1;durP2;ratioP2;P2;SDS_P1;SDS_P2;PMS_P1;PMS_P2;Temp;Humidity;BMP_temperature;BMP_pressure;BME280_temperature;BME280_humidity;BME280_pressure;Samples;Min_cycle;Max_cycle;Signal;HPM_P1;HPM_P2
2021/04/29 00:02:08;;;;;;;13.78;6.22;;;;;;;6.56;51.52;100568.95;1682096;85;21045;-70
2021/04/29 00:04:37;;;;;;;12.73;6.30;;;;;;;6.54;51.59;100572.85;1684595;85;21322;-70
2021/04/29 00:07:05;;;;;;;14.15;6.05;;;;;;;6.48;51.64;100574.34;1688226;85;21059;-70
2021/04/29 00:09:35;;;;;;;14.07;5.62;;;;;;;6.45;51.83;100567.02;1688385;85;21090;-69
2021/04/29 00:12:05;;;;;;;15.03;6.37;;;;;;;6.44;51.91;100566.17;1686889;85;21078;-73
2021/04/29 00:14:33;;;;;;;13.05;5.60;;;;;;;6.41;52.00;100570.58;1681822;85;21268;-71
2021/04/29 00:17:00;;;;;;;13.60;5.72;;;;;;;6.41;52.06;100569.23;1681379;85;21197;-72
2021/04/29 00:19:28;;;;;;;16.37;5.67;;;;;;;6.41;52.14;100569.73;1681364;85;21415;-73
2021/04/29 00:21:56;;;;;;;15.93;6.17;;;;;;;6.40;52.21;100570.75;1682331;85;21339;-72
2021/04/29 00:24:24;;;;;;;19.65;6.17;;;;;;;6.36;52.33;100560.20;1680226;84;21086;-70
2021/04/29 00:26:52;;;;;;;13.93;6.33;;;;;;;6.33;52.41;100575.50;1679225;85;21086;-73
2021/04/29 00:29:19;;;;;;;14.87;5.85;;;;;;;6.26;52.52;100571.74;1680876;85;21310;-71
2021/04/29 00:31:47;;;;;;;13.35;5.92;;;;;;;6.21;52.75;100560.50;1681152;84;21093;-70
2021/04/29 00:34:15;;;;;;;14.15;6.12;;;;;;;6.17;52.93;100565.93;1680954;85;21175;-72
2021/04/29 00:36:42;;;;;;;12.37;5.80;;;;;;;6.16;53.04;100562.02;1681010;85;21304;-70
2021/04/29 00:39:10;;;;;;;12.05;5.62;;;;;;;6.13;53.10;100565.92;1680910;84;21133;-71
2021/04/29 00:41:37;;;;;;;11.65;5.28;;;;;;;6.09;53.23;100559.11;1680923;85;21100;-71
2021/04/29 00:44:06;;;;;;;10.53;5.47;;;;;;;6.08;53.34;100567.43;1681052;85;21305;-70
2021/04/29 00:46:35;;;;;;;13.30;5.92;;;;;;;6.04;53.41;100565.55;1681149;85;21188;-71
2021/04/29 00:49:03;;;;;;;14.63;5.97;;;;;;;6.00;53.54;100560.09;1681074;84;21284;-71
2021/04/29 00:51:32;;;;;;;12.70;5.72;;;;;;;5.99;53.71;100565.19;1680986;85;21203;-70
2021/04/29 00:53:59;;;;;;;13.08;5.55;;;;;;;5.99;53.90;100558.39;1681033;85;21430;-70
2021/04/29 00:56:27;;;;;;;13.05;6.37;;;;;;;6.01;54.02;100560.44;1676504;84;21089;-73
2021/04/29 00:58:54;;;;;;;16.40;6.60;;;;;;;6.00;54.08;100556.86;1677110;85;21089;-71
2021/04/29 01:01:23;;;;;;;17.15;6.62;;;;;;;6.00;54.10;100559.59;1676303;85;21836;-72
2021/04/29 01:04:01;;;;;;;14.18;6.95;;;;;;;6.00;54.12;100563.66;1676537;85;21787;-72
2021/04/29 01:06:40;;;;;;;20.52;7.67;;;;;;;6.01;54.11;100565.87;1676248;84;21323;-72
2021/04/29 01:09:31;;;;;;;16.87;7.30;;;;;;;5.98;54.08;100557.54;1675796;84;21352;-70
2021/04/29 01:12:00;;;;;;;15.98;6.50;;;;;;;5.93;54.21;100559.89;1675899;84;21104;-72
2021/04/29 01:14:30;;;;;;;15.35;7.15;;;;;;;5.85;54.44;100558.47;1675824;85;21073;-70
2021/04/29 01:16:58;;;;;;;15.68;7.03;;;;;;;5.80;54.65;100555.86;1675865;84;21362;-73
2021/04/29 01:19:31;;;;;;;18.42;7.17;;;;;;;5.80;54.76;100559.44;1675933;84;21338;-70
2021/04/29 01:21:58;;;;;;;18.75;7.90;;;;;;;5.80;54.85;100555.36;1675743;85;21793;-73
2021/04/29 01:24:26;;;;;;;14.85;7.90;;;;;;;5.82;54.94;100551.12;1677263;84;21199;-73
2021/04/29 01:27:00;;;;;;;17.48;7.85;;;;;;;5.82;54.95;100550.61;1677123;84;21066;-71
2021/04/29 01:29:30;;;;;;;17.42;8.53;;;;;;;5.84;54.98;100551.80;1667255;85;21105;-71
2021/04/29 01:31:58;;;;;;;19.10;8.10;;;;;;;5.84;54.96;100549.09;1645394;86;21192;-71
2021/04/29 01:34:31;;;;;;;12.25;7.42;;;;;;;5.81;55.04;100554.34;1669097;84;21122;-71
2021/04/29 01:36:59;;;;;;;16.17;8.60;;;;;;;5.79;55.15;100555.52;1669151;85;21474;-72
2021/04/29 01:39:26;;;;;;;21.17;8.88;;;;;;;5.73;55.30;100554.31;1668990;85;21390;-71
2021/04/29 01:41:54;;;;;;;19.02;9.53;;;;;;;5.67;55.54;100556.31;1647715;85;21093;-70
2021/04/29 01:44:23;;;;;;;21.30;9.08;;;;;;;5.65;55.71;100557.84;1673352;84;21081;-71
2021/04/29 01:46:54;;;;;;;18.20;9.45;;;;;;;5.62;55.90;100560.03;1673627;84;21085;-70
2021/04/29 01:49:21;;;;;;;20.62;9.55;;;;;;;5.55;56.13;100558.97;1647643;85;21051;-72
2021/04/29 01:51:48;;;;;;;19.00;8.95;;;;;;;5.53;56.34;100555.06;1656550;86;21369;-71
2021/04/29 01:54:16;;;;;;;19.17;9.00;;;;;;;5.51;56.46;100554.88;1634984;86;21074;-73
2021/04/29 01:56:44;;;;;;;17.42;8.33;;;;;;;5.50;56.59;100553.17;1658207;85;21082;-71
2021/04/29 01:59:12;;;;;;;16.40;8.30;;;;;;;5.52;56.73;100565.58;1634214;86;21066;-69
2021/04/29 02:01:40;;;;;;;14.70;8.28;;;;;;;5.52;56.85;100556.58;1617168;88;21334;-72
2021/04/29 02:04:08;;;;;;;18.92;9.55;;;;;;;5.53;57.05;100565.08;1645595;87;21456;-72
2021/04/29 02:06:44;;;;;;;16.87;8.80;;;;;;;5.53;57.18;100563.72;1608129;89;21367;-70
2021/04/29 02:09:12;;;;;;;16.87;8.30;;;;;;;5.54;57.28;100568.14;1617136;87;21255;-70
2021/04/29 02:11:51;;;;;;;18.80;9.18;;;;;;;5.54;57.50;100562.70;1645637;86;21253;-70
2021/04/29 02:14:36;;;;;;;14.75;8.08;;;;;;;5.53;57.58;100565.92;1634269;86;21424;-74
2021/04/29 02:17:31;;;;;;;19.55;9.60;;;;;;;5.49;57.71;100565.91;1618741;88;21178;-71
2021/04/29 02:19:59;;;;;;;23.50;9.25;;;;;;;5.45;57.96;100558.23;1645555;87;21070;-72
2021/04/29 02:22:27;;;;;;;22.73;10.15;;;;;;;5.41;58.22;100563.14;1657015;85;21074;-70
2021/04/29 02:24:54;;;;;;;24.75;10.53;;;;;;;5.39;58.45;100553.79;1656825;85;21121;-70
2021/04/29 02:27:22;;;;;;;23.02;10.00;;;;;;;5.38;58.60;100560.23;1656960;85;21114;-71
2021/04/29 02:29:50;;;;;;;25.70;10.85;;;;;;;5.36;58.73;100566.84;1656912;85;21972;-70
2021/04/29 02:32:18;;;;;;;31.02;12.82;;;;;;;5.33;58.89;100563.09;1612522;87;21069;-72
2021/04/29 02:34:46;;;;;;;31.30;12.90;;;;;;;5.29;59.09;100572.06;1673341;84;21089;-71
2021/04/29 02:37:13;;;;;;;35.30;13.00;;;;;;;5.26;59.33;100568.81;1673356;85;21200;-71
2021/04/29 02:39:41;;;;;;;28.05;12.82;;;;;;;5.26;59.50;100576.45;1673267;84;21244;-71
2021/04/29 02:42:11;;;;;;;33.08;14.33;;;;;;;5.27;59.70;100575.45;1673483;84;21330;-71
2021/04/29 02:44:39;;;;;;;38.95;15.00;;;;;;;5.26;59.87;100572.89;1673408;85;21447;-71
2021/04/29 02:47:06;;;;;;;29.12;13.80;;;;;;;5.27;60.04;100574.09;1673389;84;21082;-72
2021/04/29 02:49:34;;;;;;;31.42;14.53;;;;;;;5.29;60.09;100577.50;1673352;85;21392;-71
2021/04/29 02:52:01;;;;;;;31.80;15.05;;;;;;;5.31;60.15;100574.11;1673426;84;21097;-71
2021/04/29 02:54:30;;;;;;;31.70;15.00;;;;;;;5.32;60.21;100573.61;1673505;85;21065;-69
2021/04/29 02:56:57;;;;;;;27.65;14.03;;;;;;;5.30;60.26;100575.13;1673408;85;21054;-70
2021/04/29 02:59:25;;;;;;;32.55;14.53;;;;;;;5.29;60.31;100573.42;1673410;85;21796;-71
2021/04/29 03:01:52;;;;;;;31.02;14.00;;;;;;;5.29;60.38;100578.86;1673655;84;21227;-71
2021/04/29 03:04:20;;;;;;;30.15;13.98;;;;;;;5.29;60.45;100577.50;1673550;84;21310;-71
2021/04/29 03:06:47;;;;;;;31.12;13.58;;;;;;;5.29;60.56;100579.36;1673641;84;21273;-72
2021/04/29 03:09:15;;;;;;;23.05;12.78;;;;;;;5.30;60.55;100575.63;1673544;84;21104;-71
2021/04/29 03:11:43;;;;;;;20.43;12.35;;;;;;;5.31;60.57;100570.04;1651978;85;21315;-71
2021/04/29 03:14:11;;;;;;;22.10;11.97;;;;;;;5.32;60.54;100577.18;1674820;84;21292;-70
2021/04/29 03:16:38;;;;;;;19.85;11.28;;;;;;;5.34;60.44;100575.66;1673191;85;21371;-72
2021/04/29 03:19:06;;;;;;;22.87;11.48;;;;;;;5.37;60.40;100576.19;1673116;85;21826;-72
2021/04/29 03:21:33;;;;;;;21.60;10.90;;;;;;;5.38;60.36;100567.53;1690166;85;21117;-70
2021/04/29 03:24:02;;;;;;;20.35;10.28;;;;;;;5.37;60.32;100569.40;1668986;86;21330;-71
2021/04/29 03:26:31;;;;;;;25.62;11.30;;;;;;;5.38;60.39;100572.97;1644327;87;21865;-72
2021/04/29 03:28:58;;;;;;;26.85;11.95;;;;;;;5.36;60.40;100585.36;1689910;84;21829;-70
2021/04/29 03:31:26;;;;;;;25.72;11.12;;;;;;;5.36;60.50;100578.56;1690203;85;21193;-72
2021/04/29 03:33:53;;;;;;;18.40;10.00;;;;;;;5.38;60.56;100576.54;1690341;84;21074;-71
2021/04/29 03:36:21;;;;;;;23.05;10.85;;;;;;;5.38;60.61;100574.33;1673398;85;21069;-73
2021/04/29 03:38:48;;;;;;;25.65;10.65;;;;;;;5.43;60.64;100582.00;1673122;84;21101;-70
2021/04/29 03:41:16;;;;;;;24.37;10.55;;;;;;;5.45;60.63;100582.19;1690121;85;21333;-75
2021/04/29 03:43:44;;;;;;;26.07;11.15;;;;;;;5.46;60.64;100584.39;1669349;85;21094;-71
2021/04/29 03:46:11;;;;;;;26.20;10.93;;;;;;;5.45;60.69;100586.27;1644435;87;21161;-70
2021/04/29 03:48:39;;;;;;;26.45;12.05;;;;;;;5.43;60.78;100582.00;1697497;84;21366;-71
2021/04/29 03:51:06;;;;;;;26.68;11.93;;;;;;;5.43;60.95;100588.28;1697279;84;21336;-69
2021/04/29 03:53:33;;;;;;;28.38;12.98;;;;;;;5.45;61.19;100580.83;1697516;84;21317;-73
2021/04/29 03:56:01;;;;;;;24.55;10.72;;;;;;;5.51;61.30;100586.98;1697266;84;21094;-73
2021/04/29 03:58:28;;;;;;;21.00;9.30;;;;;;;5.61;61.27;100586.36;1697016;84;21181;-74
2021/04/29 04:00:56;;;;;;;18.12;8.95;;;;;;;5.74;61.12;100585.91;1697102;84;21086;-72
2021/04/29 04:03:23;;;;;;;17.00;8.95;;;;;;;5.85;61.00;100582.95;1697241;84;21782;-72
2021/04/29 04:05:50;;;;;;;15.95;7.72;;;;;;;5.93;60.82;100585.73;1697210;84;21050;-70
2021/04/29 04:08:18;;;;;;;14.28;7.28;;;;;;;5.99;60.75;100578.28;1697189;84;21109;-70
2021/04/29 04:10:45;;;;;;;12.28;7.15;;;;;;;6.08;60.58;100582.39;1697207;84;21049;-71
2021/04/29 04:13:18;;;;;;;13.43;7.08;;;;;;;6.16;60.37;100581.91;1697185;84;21086;-73
2021/04/29 04:15:46;;;;;;;11.60;5.92;;;;;;;6.24;60.12;100584.66;1697477;84;21081;-71
2021/04/29 04:18:15;;;;;;;11.33;6.60;;;;;;;6.31;59.85;100582.13;1697174;83;21061;-70
2021/04/29 04:20:43;;;;;;;15.63;7.47;;;;;;;6.38;59.65;100580.45;1697430;84;21062;-70
2021/04/29 04:23:10;;;;;;;13.80;8.10;;;;;;;6.44;59.48;100575.70;1697271;84;21089;-71
2021/04/29 04:25:40;;;;;;;11.20;7.12;;;;;;;6.54;59.29;100579.15;1697374;84;21443;-70
2021/04/29 04:28:08;;;;;;;13.05;7.37;;;;;;;6.63;59.10;100577.30;1697560;84;21065;-72
2021/04/29 04:30:35;;;;;;;13.45;7.97;;;;;;;6.74;58.83;100574.75;1697616;84;21368;-70
2021/04/29 04:33:05;;;;;;;18.35;9.43;;;;;;;6.82;58.63;100579.70;1697448;84;21026;-72
2021/04/29 04:35:32;;;;;;;16.60;9.23;;;;;;;6.90;58.45;100578.84;1697367;84;21176;-72
2021/04/29 04:38:00;;;;;;;19.35;9.95;;;;;;;6.97;58.35;100582.09;1697295;84;21200;-74
2021/04/29 04:40:27;;;;;;;14.65;7.67;;;;;;;7.05;58.23;100581.23;1697022;83;21113;-71
2021/04/29 04:42:55;;;;;;;26.93;12.10;;;;;;;7.13;58.14;100579.87;1697366;84;21373;-72
2021/04/29 04:45:24;;;;;;;17.87;9.43;;;;;;;7.22;58.03;100576.14;1699273;84;21328;-73
2021/04/29 04:47:52;;;;;;;18.30;8.33;;;;;;;7.31;57.95;100583.80;1699242;84;21097;-72
2021/04/29 04:50:19;;;;;;;20.17;8.30;;;;;;;7.37;57.79;100573.57;1697398;84;21724;-70
2021/04/29 04:52:47;;;;;;;12.88;7.25;;;;;;;7.46;57.65;100579.34;1673110;85;21093;-72
2021/04/29 04:55:14;;;;;;;17.27;8.43;;;;;;;7.55;57.48;100576.09;1673133;85;21372;-72
2021/04/29 04:57:42;;;;;;;15.03;7.05;;;;;;;7.64;57.25;100576.41;1673809;84;21343;-71
2021/04/29 05:00:11;;;;;;;15.45;6.28;;;;;;;7.74;57.02;100570.75;1669023;86;21311;-70
2021/04/29 05:02:39;;;;;;;18.85;7.00;;;;;;;7.83;56.79;100565.64;1669066;85;21355;-72
2021/04/29 05:05:08;;;;;;;11.33;6.10;;;;;;;7.93;56.56;100569.86;1668871;86;21114;-74
2021/04/29 05:07:35;;;;;;;10.65;5.85;;;;;;;8.05;56.28;100574.94;1670047;84;21101;-69
2021/04/29 05:10:04;;;;;;;18.95;7.50;;;;;;;8.14;56.09;100575.23;1668951;86;21454;-72
2021/04/29 05:12:31;;;;;;;16.52;7.55;;;;;;;8.21;55.95;100577.59;1669013;86;21092;-72
2021/04/29 05:14:58;;;;;;;15.65;7.28;;;;;;;8.27;55.86;100576.88;1672963;85;21125;-71
2021/04/29 05:17:26;;;;;;;14.15;7.35;;;;;;;8.33;55.75;100585.75;1673086;84;21323;-72
2021/04/29 05:19:53;;;;;;;20.48;7.17;;;;;;;8.38;55.72;100586.06;1697243;84;21344;-71
2021/04/29 05:22:21;;;;;;;14.23;6.92;;;;;;;8.42;55.67;100584.67;1697016;84;21201;-69
2021/04/29 05:24:50;;;;;;;12.35;6.05;;;;;;;8.47;55.60;100585.02;1697135;84;21101;-70
2021/04/29 05:27:17;;;;;;;13.45;6.65;;;;;;;8.52;55.54;100589.94;1697265;84;21073;-73
2021/04/29 05:29:44;;;;;;;15.13;7.00;;;;;;;8.52;55.64;100585.33;1675629;85;21872;-72
2021/04/29 05:32:12;;;;;;;15.43;6.80;;;;;;;8.56;55.80;100591.28;1679120;85;21236;-71
2021/04/29 05:34:40;;;;;;;18.05;7.03;;;;;;;8.58;55.88;100590.06;1679079;85;21115;-73
2021/04/29 05:37:08;;;;;;;14.73;7.05;;;;;;;8.62;56.00;100595.17;1678821;84;21108;-70
2021/04/29 05:39:36;;;;;;;11.38;6.97;;;;;;;8.67;56.12;100597.70;1674797;84;21168;-70
2021/04/29 05:42:04;;;;;;;17.52;7.20;;;;;;;8.72;56.19;100593.05;1676863;84;21825;-73
2021/04/29 05:44:31;;;;;;;15.55;6.97;;;;;;;8.78;56.29;100583.62;1676862;85;21066;-73
2021/04/29 05:47:02;;;;;;;19.20;7.55;;;;;;;8.86;56.38;100595.00;1675792;84;21109;-73
2021/04/29 05:49:31;;;;;;;14.85;7.25;;;;;;;8.92;56.41;100590.69;1674931;85;21102;-77
2021/04/29 05:51:59;;;;;;;14.28;7.22;;;;;;;8.99;56.45;100589.78;1677014;85;21065;-75
2021/04/29 05:54:26;;;;;;;14.15;6.75;;;;;;;9.04;56.48;100583.24;1709833;84;21189;-73
2021/04/29 05:56:55;;;;;;;15.63;6.92;;;;;;;9.12;56.52;100590.05;1709877;84;21769;-75
2021/04/29 05:59:22;;;;;;;15.03;6.42;;;;;;;9.17;56.45;100582.14;1709694;84;21077;-77
2021/04/29 06:01:49;;;;;;;10.18;5.95;;;;;;;9.23;56.48;100583.28;1709868;84;21082;-77
2021/04/29 06:04:18;;;;;;;12.15;6.60;;;;;;;9.30;56.52;100591.59;1677353;85;21220;-77
2021/04/29 06:06:50;;;;;;;11.40;6.22;;;;;;;9.38;56.47;100583.32;1680609;85;21192;-77
2021/04/29 06:09:18;;;;;;;9.75;5.45;;;;;;;9.46;56.37;100578.62;1680999;85;21102;-75
2021/04/29 06:11:45;;;;;;;14.40;6.67;;;;;;;9.55;56.34;100587.59;1681036;85;21077;-77
2021/04/29 06:14:13;;;;;;;12.98;5.75;;;;;;;9.61;56.24;100580.00;1681055;84;21154;-75
2021/04/29 06:16:40;;;;;;;9.25;5.60;;;;;;;9.69;56.10;100585.39;1676745;85;21078;-74
2021/04/29 06:19:08;;;;;;;9.75;5.85;;;;;;;9.77;55.88;100581.75;1676801;84;21086;-73
2021/04/29 06:21:36;;;;;;;9.38;4.95;;;;;;;9.85;55.70;100588.50;1676973;85;21645;-77
2021/04/29 06:24:04;;;;;;;10.00;5.12;;;;;;;9.90;55.49;100587.41;1677077;84;21097;-75
2021/04/29 06:26:31;;;;;;;8.30;5.30;;;;;;;9.96;55.28;100591.28;1677465;85;21105;-77
2021/04/29 06:28:58;;;;;;;10.78;5.10;;;;;;;10.03;55.13;100584.86;1677129;85;21061;-74
2021/04/29 06:31:26;;;;;;;10.32;5.15;;;;;;;10.13;54.70;100587.30;1672221;85;21069;-76
2021/04/29 06:33:53;;;;;;;7.67;4.90;;;;;;;10.22;54.48;100593.03;1678829;85;21066;-76
2021/04/29 06:36:20;;;;;;;7.75;4.50;;;;;;;10.30;54.24;100590.19;1678613;85;21144;-74
2021/04/29 06:38:48;;;;;;;10.82;5.25;;;;;;;10.42;54.05;100592.80;1678686;84;21093;-75
2021/04/29 06:41:15;;;;;;;8.70;4.87;;;;;;;10.53;53.85;100589.23;1677799;85;21061;-75
2021/04/29 06:43:42;;;;;;;6.75;4.33;;;;;;;10.64;53.62;100595.58;1675184;85;21076;-73
2021/04/29 06:46:11;;;;;;;7.67;4.53;;;;;;;10.74;53.23;100593.37;1675074;85;21129;-75
2021/04/29 06:48:40;;;;;;;11.90;5.72;;;;;;;10.82;52.88;100590.51;1674942;85;21531;-76
2021/04/29 06:51:08;;;;;;;9.50;4.87;;;;;;;10.89;52.66;100580.98;1699369;84;21057;-73
2021/04/29 06:53:37;;;;;;;7.95;4.80;;;;;;;10.96;52.36;100585.48;1696350;84;21087;-75
2021/04/29 06:56:05;;;;;;;8.88;4.72;;;;;;;11.03;52.05;100575.95;1699428;84;21082;-74
2021/04/29 06:58:33;;;;;;;11.63;5.08;;;;;;;11.10;51.83;100583.75;1699448;84;21192;-74
2021/04/29 07:01:01;;;;;;;8.05;4.72;;;;;;;11.18;51.59;100589.63;1699274;84;21078;-76
2021/04/29 07:03:29;;;;;;;8.35;4.70;;;;;;;11.22;51.29;100579.95;1699161;84;21066;-78
2021/04/29 07:05:56;;;;;;;9.18;5.10;;;;;;;11.23;51.18;100587.98;1675101;85;21663;-77
2021/04/29 07:08:23;;;;;;;7.75;4.97;;;;;;;11.24;50.93;100579.23;1674951;85;21488;-76
2021/04/29 07:10:52;;;;;;;12.80;5.47;;;;;;;11.27;50.74;100582.95;1675021;85;21098;-76
2021/04/29 07:13:20;;;;;;;11.78;5.05;;;;;;;11.28;50.71;100588.77;1675109;85;21081;-77
2021/04/29 07:15:47;;;;;;;8.78;5.33;;;;;;;11.34;50.62;100580.59;1670478;85;21119;-76
2021/04/29 07:18:14;;;;;;;8.10;4.87;;;;;;;11.43;50.42;100582.66;1673899;84;21073;-75
2021/04/29 07:20:42;;;;;;;9.15;4.55;;;;;;;11.56;50.14;100590.16;1675455;84;21101;-75
2021/04/29 07:23:09;;;;;;;9.35;4.72;;;;;;;11.66;49.71;100577.77;1670549;86;21077;-77
2021/04/29 07:25:37;;;;;;;6.60;4.62;;;;;;;11.75;49.43;100575.75;1670831;86;21097;-77
2021/04/29 07:28:05;;;;;;;9.85;4.67;;;;;;;11.86;49.20;100569.73;1647691;85;21155;-73
2021/04/29 07:30:32;;;;;;;9.05;4.58;;;;;;;11.97;48.93;100568.31;1650718;85;21815;-72
2021/04/29 07:33:00;;;;;;;11.93;4.47;;;;;;;12.08;48.55;100560.88;1680862;85;21825;-74
2021/04/29 07:35:27;;;;;;;11.97;4.58;;;;;;;12.18;48.44;100565.98;1683282;84;21800;-77
2021/04/29 07:37:55;;;;;;;9.40;4.67;;;;;;;12.29;48.25;100563.50;1709491;84;21790;-75
2021/04/29 07:40:22;;;;;;;11.18;4.45;;;;;;;12.39;47.89;100563.16;1675489;84;21638;-76
2021/04/29 07:42:49;;;;;;;9.50;3.77;;;;;;;12.48;47.76;100563.81;1673879;85;21125;-73
2021/04/29 07:45:16;;;;;;;8.60;4.35;;;;;;;12.58;47.51;100563.75;1679982;84;21129;-74
2021/04/29 07:47:45;;;;;;;15.30;5.37;;;;;;;12.70;47.22;100557.96;1697062;84;21129;-74
2021/04/29 07:50:13;;;;;;;7.90;3.58;;;;;;;12.81;46.76;100569.41;1705086;84;21511;-76
2021/04/29 07:52:42;;;;;;;7.20;3.77;;;;;;;12.86;46.64;100562.75;1690580;84;21122;-73
2021/04/29 07:55:11;;;;;;;7.12;3.60;;;;;;;12.88;46.29;100560.11;1676910;84;21119;-75
2021/04/29 07:57:38;;;;;;;9.50;4.25;;;;;;;12.91;46.31;100545.94;1677748;84;21180;-72
2021/04/29 08:00:07;;;;;;;8.25;3.83;;;;;;;13.02;45.43;100558.26;1680596;85;21105;-72
2021/04/29 08:02:35;;;;;;;7.15;3.75;;;;;;;13.08;44.46;100553.30;1669805;85;21093;-75
2021/04/29 08:05:04;;;;;;;15.72;3.70;;;;;;;13.13;44.05;100549.38;1680818;85;21163;-73
2021/04/29 08:07:31;;;;;;;8.78;3.80;;;;;;;13.19;44.44;100551.84;1680782;85;21061;-73
2021/04/29 08:09:59;;;;;;;8.68;3.70;;;;;;;13.27;44.11;100544.76;1654248;86;21093;-74
2021/04/29 08:12:26;;;;;;;7.40;3.87;;;;;;;13.36;43.46;100542.64;1654423;86;21380;-74
2021/04/29 08:14:56;;;;;;;158.90;10.45;;;;;;;13.44;42.95;100547.40;1647854;85;21741;-75
2021/04/29 08:17:23;;;;;;;8.45;3.52;;;;;;;13.48;42.47;100544.53;1655791;85;21096;-75
2021/04/29 08:19:54;;;;;;;6.58;3.40;;;;;;;13.49;42.65;100534.37;1651055;86;21756;-71
2021/04/29 08:22:23;;;;;;;5.75;3.25;;;;;;;13.60;42.53;100533.19;1709294;84;21113;-69
2021/04/29 08:24:57;;;;;;;8.28;3.67;;;;;;;13.72;42.41;100525.68;1707783;84;21085;-70
2021/04/29 08:27:26;;;;;;;5.53;3.10;;;;;;;13.82;42.29;100526.08;1703962;84;21329;-70
2021/04/29 08:29:59;;;;;;;6.58;3.22;;;;;;;13.96;42.07;100515.33;1703263;84;21093;-72
2021/04/29 08:32:28;;;;;;;9.40;4.47;;;;;;;14.14;42.01;100522.37;1674405;84;21809;-72
2021/04/29 08:34:58;;;;;;;8.83;3.47;;;;;;;14.33;41.60;100510.97;1641132;86;21790;-70
2021/04/29 08:37:28;;;;;;;6.97;3.70;;;;;;;14.54;40.78;100518.10;1664880;84;21066;-73
2021/04/29 08:39:58;;;;;;;5.45;3.62;;;;;;;14.71;40.57;100528.08;1617106;88;21275;-71
2021/04/29 08:42:28;;;;;;;6.03;3.70;;;;;;;14.86;39.94;100525.86;1645363;85;21108;-71
2021/04/29 08:44:56;;;;;;;5.20;3.45;;;;;;;14.97;39.85;100516.89;1673312;85;21084;-74
2021/04/29 08:47:24;;;;;;;5.97;3.35;;;;;;;15.11;39.54;100507.97;1649826;85;21069;-72
2021/04/29 08:49:54;;;;;;;6.40;3.90;;;;;;;15.19;39.36;100502.17;1672094;84;21241;-69
2021/04/29 08:52:23;;;;;;;4.90;3.40;;;;;;;15.18;39.36;100497.19;1675306;84;21109;-70
2021/04/29 08:54:51;;;;;;;8.95;3.67;;;;;;;15.25;39.42;100505.41;1673175;85;21127;-71
2021/04/29 08:57:18;;;;;;;7.72;3.85;;;;;;;15.39;39.22;100487.65;1670353;84;21220;-70
2021/04/29 08:59:48;;;;;;;9.08;3.95;;;;;;;15.50;38.82;100499.33;1668990;86;21344;-70
2021/04/29 09:02:16;;;;;;;16.50;4.17;;;;;;;15.55;38.60;100496.73;1671181;84;21750;-70
2021/04/29 09:04:44;;;;;;;5.90;3.75;;;;;;;15.49;38.59;100489.36;1646294;87;21378;-71
2021/04/29 09:07:16;;;;;;;6.87;4.10;;;;;;;15.46;38.58;100484.83;1673131;85;21316;-71
2021/04/29 09:09:44;;;;;;;7.92;4.20;;;;;;;15.48;38.68;100476.62;1672383;85;21197;-71
2021/04/29 09:12:12;;;;;;;20.52;4.67;;;;;;;15.61;38.54;100474.86;1673665;85;21146;-71
2021/04/29 09:14:42;;;;;;;11.70;4.28;;;;;;;15.74;38.25;100478.85;1672433;85;21057;-70
2021/04/29 09:17:10;;;;;;;9.05;4.50;;;;;;;15.85;38.07;100483.61;1691352;84;21077;-68
2021/04/29 09:19:48;;;;;;;9.15;4.95;;;;;;;15.88;37.63;100476.78;1696868;84;21225;-69
2021/04/29 09:22:23;;;;;;;8.58;4.05;;;;;;;15.87;37.71;100475.94;1644466;85;21085;-70
2021/04/29 09:24:55;;;;;;;9.95;4.05;;;;;;;15.91;37.68;100452.30;1645832;87;21693;-68
2021/04/29 09:27:24;;;;;;;11.68;3.87;;;;;;;16.00;37.49;100446.76;1681322;84;21248;-68
2021/04/29 09:29:58;;;;;;;5.30;3.50;;;;;;;16.06;37.24;100461.03;1697061;84;21296;-67
2021/04/29 09:32:31;;;;;;;7.28;3.62;;;;;;;16.09;37.06;100449.51;1697282;84;21432;-71
2021/04/29 09:34:59;;;;;;;7.42;3.55;;;;;;;16.18;37.06;100444.50;1697410;84;21356;-69
2021/04/29 09:37:36;;;;;;;6.47;3.52;;;;;;;16.34;36.86;100443.03;1673320;85;21284;-67
2021/04/29 09:40:07;;;;;;;8.68;3.77;;;;;;;16.46;36.50;100439.77;1673020;84;21423;-69
2021/04/29 09:42:36;;;;;;;7.25;3.65;;;;;;;16.54;36.34;100436.67;1668144;85;21757;-72
2021/04/29 09:45:08;;;;;;;5.22;3.05;;;;;;;16.60;36.15;100432.12;1629888;86;21344;-68
2021/04/29 09:47:36;;;;;;;10.18;3.05;;;;;;;16.65;36.06;100423.44;1654956;85;21063;-75
2021/04/29 09:50:04;;;;;;;11.33;3.60;;;;;;;16.76;35.93;100422.63;1658291;86;21740;-69
2021/04/29 09:52:32;;;;;;;10.58;4.15;;;;;;;16.79;35.69;100430.45;1673903;85;21216;-70
2021/04/29 09:55:04;;;;;;;6.15;3.30;;;;;;;16.70;35.92;100431.03;1673234;85;21111;-69
2021/04/29 09:57:34;;;;;;;8.35;3.52;;;;;;;16.60;35.99;100426.05;1673456;85;21734;-71
2021/04/29 10:00:02;;;;;;;6.25;3.02;;;;;;;16.49;36.17;100429.08;1673270;85;21792;-70
2021/04/29 10:02:29;;;;;;;5.33;3.05;;;;;;;16.49;36.11;100417.17;1673333;85;21340;-67
2021/04/29 10:04:58;;;;;;;5.25;3.00;;;;;;;16.55;35.84;100416.77;1673263;84;21101;-68
2021/04/29 10:07:25;;;;;;;7.87;3.08;;;;;;;16.64;35.80;100409.27;1672987;85;21261;-70
2021/04/29 10:09:52;;;;;;;5.25;2.80;;;;;;;16.76;35.59;100406.02;1673188;84;21884;-73
2021/04/29 10:12:21;;;;;;;5.08;2.70;;;;;;;16.86;35.54;100402.66;1686505;84;21704;-69
2021/04/29 10:14:50;;;;;;;5.00;2.70;;;;;;;16.94;35.35;100395.42;1696809;84;21093;-70
2021/04/29 10:17:19;;;;;;;6.65;2.85;;;;;;;17.01;35.32;100398.08;1680510;84;21073;-67
2021/04/29 10:19:50;;;;;;;10.28;3.58;;;;;;;17.02;35.34;100398.38;1668809;84;21066;-75
2021/04/29 10:22:18;;;;;;;21.75;7.20;;;;;;;17.08;35.29;100389.95;1671266;84;21070;-76
2021/04/29 10:24:47;;;;;;;4.72;2.90;;;;;;;17.16;35.21;100387.36;1622973;87;21108;-70
2021/04/29 10:27:24;;;;;;;6.05;2.70;;;;;;;17.24;35.17;100376.45;1670292;85;21201;-74
2021/04/29 10:30:06;;;;;;;6.78;2.72;;;;;;;17.33;35.17;100396.62;1670615;84;21098;-72
2021/04/29 10:32:34;;;;;;;5.08;2.90;;;;;;;17.39;34.86;100388.73;1651633;85;21105;-72
2021/04/29 10:35:21;;;;;;;7.50;3.15;;;;;;;17.43;34.71;100381.61;1684260;84;21638;-69
2021/04/29 10:38:00;;;;;;;5.58;2.60;;;;;;;17.43;34.78;100369.69;1708798;84;21127;-69
2021/04/29 10:40:38;;;;;;;4.03;2.25;;;;;;;17.53;34.75;100368.52;1652685;86;21198;-70
2021/04/29 10:43:06;;;;;;;6.42;2.40;;;;;;;17.64;34.58;100382.09;1651877;87;21774;-75
2021/04/29 10:45:34;;;;;;;5.17;2.80;;;;;;;17.70;33.81;100363.13;1706533;84;21518;-78
2021/04/29 10:48:09;;;;;;;5.65;2.70;;;;;;;17.59;33.95;100370.89;1706824;84;21097;-71
2021/04/29 10:50:50;;;;;;;4.83;2.50;;;;;;;17.58;34.46;100363.67;1711458;84;21158;-69
2021/04/29 10:53:32;;;;;;;4.15;2.83;;;;;;;17.72;34.42;100374.81;1709336;84;21037;-72
2021/04/29 10:56:12;;;;;;;6.17;2.60;;;;;;;17.89;33.43;100356.31;1709729;84;21981;-71
2021/04/29 10:58:40;;;;;;;4.87;3.17;;;;;;;18.08;32.93;100353.34;1644203;87;21226;-76
2021/04/29 11:01:13;;;;;;;7.95;3.02;;;;;;;18.22;33.07;100367.23;1682313;84;21089;-70
2021/04/29 11:03:49;;;;;;;6.05;3.20;;;;;;;18.29;31.78;100365.98;1653875;84;21053;-76
2021/04/29 11:06:33;;;;;;;9.28;4.00;;;;;;;18.13;31.73;100354.82;1678287;84;21066;-71
2021/04/29 11:09:03;;;;;;;11.15;4.58;;;;;;;18.03;32.02;100354.08;1677439;85;21220;-71
2021/04/29 11:11:36;;;;;;;5.92;3.72;;;;;;;18.14;32.29;100364.83;1651779;85;21692;-70
2021/04/29 11:14:16;;;;;;;9.30;3.22;;;;;;;18.29;32.08;100355.44;1632294;85;21100;-70
2021/04/29 11:16:54;;;;;;;6.10;3.30;;;;;;;18.43;32.21;100348.48;1616674;87;21073;-71
2021/04/29 11:19:40;;;;;;;3.63;2.80;;;;;;;18.55;32.13;100340.91;1649872;85;21202;-70
2021/04/29 11:22:14;;;;;;;8.05;3.37;;;;;;;18.65;32.18;100338.89;1614357;88;21369;-74
2021/04/29 11:24:49;;;;;;;6.00;3.27;;;;;;;18.77;31.81;100344.35;1629701;87;21285;-68
2021/04/29 11:27:24;;;;;;;5.58;3.35;;;;;;;18.85;31.63;100330.05;1647987;87;21228;-67
2021/04/29 11:30:06;;;;;;;5.97;3.20;;;;;;;18.88;31.67;100335.96;1648366;86;21558;-69
2021/04/29 11:32:35;;;;;;;7.80;3.30;;;;;;;18.88;31.72;100342.06;1651266;85;21140;-68
2021/04/29 11:35:09;;;;;;;5.30;3.00;;;;;;;18.92;31.32;100350.17;1651783;86;21060;-68